Weather at Salerno Airport

Public forecast

Using degrees Celsius for public forecast. Weather courtesy of forecast.io.

Closest aviation weather report (METAR) to Salerno Airport

Closest report is Hamid Karzai International Airport, 81.1 nm (150.2 km) NNW. Retrieved 2020/09/27 02:50 UTC (20 minutes ago):

OAKB 270250Z VRB02KT 6000 3000W HZ SCT060 SCT080 17/08 Q1018 RMK A3007 WHT WHT

Closest aviation forecast (TAF) to Salerno Airport

Forecast is more than 12 hours old.

Closest forecast is Jalalabad Airport, 67.8 nm (125.6 km) NNE. Retrieved 2020/09/15 16:17 UTC (11 days ago):

TAF OAJL 151600Z 1516/1622 VRB06KT 9999 SKC QNH2967INS BECMG 1607/1608 12012KT 9999 SKC QNH2978INS BECMG 1615/1616 VRB06KT 9999 SKC QNH2967INS TX38/1610Z TN20/1601Z